AirNav   Air Wisconsin pilot careers
 
 1495 users online  

2R9 Karnes County Airport
Kenedy, Texas, USA

GOING TO KENEDY?


FAA INFORMATION EFFECTIVE 13 SEPTEMBER 2018

Location

FAA Identifier: 2R9
Lat/Long: 28-49-29.9485N / 097-51-56.0460W
28-49.499142N / 097-51.934100W
28.8249857 / -97.8655683
(estimated)
Elevation: 288.7 ft. / 88.0 m (surveyed)
Variation: 05E (2010)
From city: 1 mile NW of KENEDY, TX
Time zone: UTC -5 (UTC -6 during Standard Time)
Zip code: 78119

Airport Operations

Airport use: Open to the public
Control tower: no
ARTCC: HOUSTON CENTER
FSS: SAN ANGELO FLIGHT SERVICE STATION
NOTAMs facility: SJT (NOTAM-D service available)
Attendance: MON-FRI DAYLIGHT HOURS
Wind indicator: lighted
Segmented circle: yes
Lights: MIRL RY 16/34 & TWY LGTS PRESET LOW INTST; TO INCR INTST ACTVT - CTAF.
Beacon: white-green (lighted land airport)
Operates sunset to sunrise.

Airport Communications

CTAF/UNICOM: 123.0
WX ASOS at NGT (18 nm SE): 353.675
  • APCH/DEP SERVICE PROVIDED BY HOUSTON ARTCC ON FREQS 134.6/322.5 (THREE RIVERS RCAG).

Nearby radio navigation aids

VOR radial/distance  VOR name  Freq  Var
THXr030/24.4THREE RIVERS VORTAC111.4008E
SSFr122/(39.9)STINSON VOR108.4009E

Airport Services

Fuel available: 100LL JET-A
Parking: tiedowns
Airframe service: MAJOR
Powerplant service: MAJOR

Runway Information

Runway 16/34

Dimensions: 3218 x 60 ft. / 981 x 18 m
Surface: asphalt, in fair condition
Weight bearing capacity: 
Single wheel: 11.0
Runway edge lights: medium intensity
Runway edge markings: MARKINGS FADED
RUNWAY 16  RUNWAY 34
Latitude: 28-49.760033N28-49.238250N
Longitude: 097-51.990067W097-51.878133W
Elevation: 288.7 ft.272.2 ft.
Gradient: 0.6%0.5% UP
Traffic pattern: rightleft
Runway heading: 164 magnetic, 169 true344 magnetic, 349 true
Markings: basic, in poor conditionbasic, in poor condition
Touchdown point: yes, no lightsyes, no lights
Obstructions: 34 ft. pole, 628 ft. from runway, 306 ft. left of centerline, 12:1 slope to clear
+6 FT DIRT ROAD 144 FT FM THLD.
31 ft. trees, 200 ft. from runway, 195 ft. left of centerline
+35 FT TREES 0-200 FT FM THLD AT 177-200 FT L, 5 FT FENCE 0-200 FT FM THLD & 105 FT-200 FT LEFT.

Airport Ownership and Management from official FAA records

Ownership: Publicly-owned
Owner: CITY OF KENEDY
303 W.MAIN
KENEDY, TX 78119
Phone 830-583-2230
Manager: RON HYDE
P.O. BOX 569
KENEDY, TX 78119
Phone (830) 583-5930

Airport Operational Statistics

Aircraft based on the field: 12
Single engine airplanes: 10
Multi engine airplanes: 2
    
Aircraft operations: avg 57/week *
67% local general aviation
33% transient general aviation
* for 12-month period ending 26 January 2017

Additional Remarks

DEER ON & INVOF ARPT (SEASONAL).
ACFT AIRFRAME & POWER PLANT REPAIRS ON CALL 830-299-2295.
SOUTH TWY CLSD.

Instrument Procedures

NOTE: All procedures below are presented as PDF files. If you need a reader for these files, you should download the free Adobe Reader.

NOT FOR NAVIGATION. Please procure official charts for flight.
FAA instrument procedures published for use from 13 September 2018 at 0901Z to 11 October 2018 at 0900Z.

 
IAPs - Instrument Approach Procedures
RNAV (GPS) RWY 16 **CHANGED**   download (167KB)
RNAV (GPS) RWY 34 **CHANGED**   download (161KB)
VOR/DME-A **CHANGED**   download (139KB)
NOTE: Special Take-Off Minimums/Departure Procedures apply   download (154KB)

Other nearby airports with instrument procedures:

KNGT - Goliad Naval Outlying Field (18 nm SE)
KBEA - Beeville Municipal Airport (28 nm S)
TX2 - Chase Field Industrial Airport (30 nm S)
8T6 - Live Oak County Airport (31 nm SW)
KPEZ - Pleasanton Municipal Airport (35 nm W)
 
Loc | Ops | Rwys | IFR | FBO | Links
Com | Nav | Svcs | Stats | Notes


 
Area around 2R9 (Karnes County Airport)
 
Road maps at: MapQuest Bing Google
 
Aerial photo
WARNING: Photo may not be current or correct
Aerial photo of 2R9 (Karnes County Airport)
Photo by Glenn Maleske
Taken late January 2010

Do you have a better or more recent aerial photo of Karnes County Airport that you would like to share? If so, please send us your photo.

 
Sectional chart

 
Airport distance calculator
Flying to Karnes County Airport? Find the distance to fly.

From to 2R9

Sunrise and sunset
Times for 24-Sep-2018
 Local
(UTC-5)
 Zulu
(UTC)
Morning civil twilight06:5811:58
Sunrise07:2212:22
Sunset19:2500:25
Evening civil twilight19:4900:49

Current date and time
Zulu (UTC)  24-Sep-2018 18:33:13
Local (UTC-5)  24-Sep-2018 13:33:13
 
METAR
KBEA 
28nm S 
241815Z AUTO 19008G14KT 10SM SCT043 SCT050 SCT065 31/22 A2992 RMK AO2 T03070216
KPEZ 
35nm W 
241815Z AUTO 19006KT 10SM SCT038 BKN045 BKN060 31/18 A2993 RMK AO2 T03080183
KSSF 
44nm NW 
241753Z VRB06KT 10SM FEW036 30/18 A2992 RMK AO2 SLP119 T03000183 10306 20233 58003
KRND 
47nm NW 
241756Z AUTO 20005KT 10SM FEW027 OVC080 28/22 A2994 RMK AO2 SLP131 T02800215 10281 20217 58003 $
KT20 
47nm NE 
241815Z AUTO 20005KT 10SM SCT031 30/22 A2991 RMK AO2 T03010223
KVCT 
49nm E 
241751Z 17007KT 10SM SCT037 31/22 A2993 RMK AO2 SLP132 T03060217 10306 20228 58006
KSKF 
49nm NW 
241819Z AUTO 17008KT 10SM FEW038 29/21 A2991 RMK AO2 DZB05E19 SLP121 $
TAF
KSSF 
44nm NW 
241740Z 2418/2518 14006KT P6SM SCT060 FM251100 17005KT P6SM SCT020 FM251600 16002KT P6SM BKN040
KRND 
47nm NW 
241700Z 2417/2523 21009KT 9999 BKN040 QNH2986INS BECMG 2423/2424 15006KT 9999 SCT030 QNH2988INS BECMG 2508/2509 16006KT 9999 SCT005 BKN015 QNH2990INS TEMPO 2510/2515 3200 BR BKN005 BECMG 2515/2516 17006KT 9999 SCT040 QNH2986INS TX32/2421Z TN21/2510Z
KVCT 
49nm E 
241741Z 2418/2518 18005KT P6SM VCSH SCT040 BKN050 FM242200 16007KT P6SM VCSH BKN050 FM250300 16004KT P6SM SCT025 BKN250 TEMPO 2509/2513 4SM BR FM251700 19012KT P6SM SCT025 BKN150
KSKF 
49nm NW 
241800Z 2418/2524 21009KT 9999 BKN040 QNH2986INS BECMG 2423/2424 15006KT 9999 SCT030 QNH2988INS BECMG 2508/2509 16006KT 9999 SCT005 BKN015 QNH2990INS TEMPO 2510/2515 3200 BR BKN005 BECMG 2515/2516 17006KT 9999 SCT040 QNH2986INS TX32/2421Z TN21/2510Z
NOTAMs
Click for the latest NOTAMs
NOTAMs are issued by the DoD/FAA and will open in a separate window not controlled by AirNav.

 

 
 

FBO, Fuel Providers, and Aircraft Ground Support

  
 Business Name 
 
 Contact 
 
 Services / Description 
 
Fuel Prices
 
Comments
  
Stetson Aviation, Inc. 830-583-9884
830-583-5930
[web site]
[email]
Aviation fuel, Aircraft ground handling, Aircraft parking (ramp or tiedown), Hangar leasing / sales, GPU / Power cart, Passenger terminal and lounge, ...

More info about Stetson Aviation, Inc.
Avfuel
100LL Jet A
SS $4.65 $3.69 
 Updated 26-Aug-2018
 
   2 read write
SS=Self service
Update Fuel Prices
 

Where to Eat: Catering, Restaurants, Food shops

  
 Business Name 
 
 Contact 
 
 Services / Description 
 
Distance
 
Comments
  
Barth's Restaurant 830-583-2468
no information available

If you are affiliated with Barth's Restaurant and would like to show here your services, contact info, web link, logo, and more, click here
0.2 miles  
   write
 

Would you like to see your business listed on this page?

 If your business provides an interesting product or service to pilots, flight crews, aircraft, or users of the Karnes County Airport, you should consider listing it here.  To start the listing process, click on the button below
 
Add a business
 

Other Pages about Karnes County Airport

Update a link
 
Copyright © AirNav, LLC. All rights reserved. Privacy Policy  Contact